Bateman, Wisconsin
Current Conditions -  °F | °C
As of 10:56 PM on Sunday 19 Oct 2014 (Local Time) from KEAU Reporting Station
Clear Clear  
Wind Chill: 45°   Ceiling: Unl
Heat Index: 47°   Visibility: 10mi
Dew Point: 43°   Wind: 5mph
Humidity: 86%   Direction: 250°WSW
Pressure: 29.76"   Gusts: NA
Location:  44.9743°N, 91.4379°W
Report Text: KEAU 200356Z AUTO 25004KT 10SM CLR 08/06 A2976 RMK AO2 SLP082 T00830061
Loading
Personal Weather Stations






























Interactive Weather Map
Tropical Storm Tracking
New forecast layout! Learn more

10-Day Weather Forecast

Advertisements
Track Severe Weather on mobile